Time;durP1;ratioP1;P1;durP2;ratioP2;P2;SDS_P1;SDS_P2;PMS_P1;PMS_P2;Temp;Humidity;BMP_temperature;BMP_pressure;BME280_temperature;BME280_humidity;BME280_pressure;Samples;Min_cycle;Max_cycle;Signal;HPM_P1;HPM_P2
2021/03/05 00:00:44;;;;;;;11.77;9.17;;;8.00;99.90;;;;;;5094895;28;20028;-66
2021/03/05 00:03:10;;;;;;;10.90;8.93;;;8.00;99.90;;;;;;5096817;28;20028;-65
2021/03/05 00:05:38;;;;;;;11.00;8.60;;;7.90;99.90;;;;;;5095119;28;20504;-64
2021/03/05 00:08:05;;;;;;;12.20;8.90;;;7.90;99.90;;;;;;5096653;28;20031;-65
2021/03/05 00:10:31;;;;;;;;;;;7.90;99.90;;;;;;5096765;28;20028;-65
2021/03/05 00:12:57;;;;;;;12.98;8.43;;;7.90;99.90;;;;;;5096412;28;19911;-65
2021/03/05 00:15:25;;;;;;;12.20;8.60;;;7.80;99.90;;;;;;5096261;28;20020;-65
2021/03/05 00:17:51;;;;;;;12.48;9.27;;;7.70;99.90;;;;;;5096406;28;20028;-65
2021/03/05 00:20:20;;;;;;;14.57;10.35;;;7.70;99.90;;;;;;5096205;28;20016;-65
2021/03/05 00:22:46;;;;;;;12.85;9.65;;;7.60;99.90;;;;;;5095127;28;20024;-65
2021/03/05 00:25:12;;;;;;;14.80;10.43;;;7.50;99.90;;;;;;5097977;28;20025;-65
2021/03/05 00:27:38;;;;;;;13.90;10.48;;;7.50;99.90;;;;;;5096149;28;20036;-65
2021/03/05 00:30:08;;;;;;;14.00;9.80;;;7.30;99.90;;;;;;5096437;28;20441;-65
2021/03/05 00:32:37;;;;;;;12.70;9.88;;;7.30;99.90;;;;;;5095814;28;20024;-65
2021/03/05 00:35:06;;;;;;;11.70;8.75;;;7.30;99.90;;;;;;5095723;28;20020;-65
2021/03/05 00:37:32;;;;;;;13.27;9.75;;;7.20;99.90;;;;;;5094065;28;20028;-64
2021/03/05 00:39:57;;;;;;;12.23;8.88;;;7.10;99.90;;;;;;5095460;28;20076;-64
2021/03/05 00:42:23;;;;;;;13.30;9.93;;;7.10;99.90;;;;;;5094417;28;20020;-65
2021/03/05 00:44:49;;;;;;;13.53;9.47;;;7.10;99.90;;;;;;5095822;28;20383;-65
2021/03/05 00:47:14;;;;;;;13.53;10.23;;;7.00;99.90;;;;;;5095802;28;20122;-65
2021/03/05 00:49:40;;;;;;;16.27;10.83;;;6.90;99.90;;;;;;5095706;28;20050;-64
2021/03/05 00:52:06;;;;;;;18.50;12.17;;;6.90;99.90;;;;;;5095713;28;20031;-66
2021/03/05 00:54:31;;;;;;;15.23;10.27;;;6.90;99.90;;;;;;5094319;28;20051;-64
2021/03/05 00:56:57;;;;;;;18.70;11.80;;;6.90;99.90;;;;;;5094244;28;20106;-64
2021/03/05 00:59:23;;;;;;;15.17;10.83;;;6.80;99.90;;;;;;5095339;28;20413;-64
2021/03/05 01:01:49;;;;;;;19.63;11.35;;;6.80;99.90;;;;;;5095096;28;20494;-64
2021/03/05 01:04:14;;;;;;;18.03;11.73;;;6.70;99.90;;;;;;5093451;28;20032;-65
2021/03/05 01:06:40;;;;;;;18.20;11.97;;;6.60;99.90;;;;;;5095473;28;20385;-64
2021/03/05 01:09:06;;;;;;;18.67;11.90;;;6.60;99.90;;;;;;5094229;28;20028;-65
2021/03/05 01:11:33;;;;;;;23.10;13.02;;;6.60;99.90;;;;;;5099943;28;20031;-65
2021/03/05 01:14:00;;;;;;;21.05;12.27;;;6.50;99.90;;;;;;5098053;28;20476;-64
2021/03/05 01:16:25;;;;;;;20.83;12.70;;;6.50;99.90;;;;;;5096615;28;20024;-64
2021/03/05 01:18:51;;;;;;;19.23;12.60;;;6.50;99.90;;;;;;5098254;28;20024;-65
2021/03/05 01:21:17;;;;;;;20.30;12.38;;;6.50;99.90;;;;;;5095758;28;20020;-65
2021/03/05 01:23:43;;;;;;;20.27;12.53;;;6.40;99.90;;;;;;5095125;28;20031;-64
2021/03/05 01:26:10;;;;;;;19.80;11.83;;;6.50;99.90;;;;;;5094459;28;20111;-66
2021/03/05 01:28:36;;;;;;;20.80;12.38;;;6.40;99.90;;;;;;5095037;28;20044;-65
2021/03/05 01:31:02;;;;;;;21.67;12.68;;;6.40;99.90;;;;;;5097965;28;20028;-65
2021/03/05 01:33:28;;;;;;;22.27;12.20;;;6.40;99.90;;;;;;5095852;28;20484;-65
2021/03/05 01:35:53;;;;;;;22.55;11.63;;;6.30;99.90;;;;;;5094872;28;20495;-66
2021/03/05 01:38:19;;;;;;;19.67;11.43;;;6.30;99.90;;;;;;5094732;28;20020;-65
2021/03/05 01:40:46;;;;;;;19.33;11.37;;;6.30;99.90;;;;;;5094768;28;20064;-65
2021/03/05 01:43:14;;;;;;;19.98;11.55;;;6.30;99.90;;;;;;5093520;28;20024;-66
2021/03/05 01:45:40;;;;;;;20.30;11.05;;;6.20;99.90;;;;;;5094406;28;20480;-65
2021/03/05 01:48:12;;;;;;;21.37;11.67;;;6.20;99.90;;;;;;5097759;28;20020;-65
2021/03/05 01:50:50;;;;;;;19.50;10.68;;;6.20;99.90;;;;;;5096783;28;20270;-64
2021/03/05 01:53:16;;;;;;;19.02;10.55;;;6.20;99.90;;;;;;5095568;28;20020;-64
2021/03/05 01:55:42;;;;;;;18.92;10.93;;;6.20;99.90;;;;;;5095138;28;20476;-65
2021/03/05 01:58:08;;;;;;;21.23;11.90;;;6.20;99.90;;;;;;5093765;28;20115;-65
2021/03/05 02:00:36;;;;;;;18.63;11.30;;;6.20;99.90;;;;;;5095082;28;20019;-65
2021/03/05 02:03:03;;;;;;;21.00;11.02;;;6.30;99.90;;;;;;5095029;28;20254;-65
2021/03/05 02:05:28;;;;;;;20.67;11.52;;;6.20;99.90;;;;;;5094710;28;20115;-65
2021/03/05 02:07:54;;;;;;;20.60;11.40;;;6.20;99.90;;;;;;5094527;28;20035;-64
2021/03/05 02:10:20;;;;;;;18.77;11.73;;;6.20;99.90;;;;;;5094576;28;20028;-65
2021/03/05 02:12:45;;;;;;;21.93;11.67;;;6.20;99.90;;;;;;5094567;28;20024;-65
2021/03/05 02:15:11;;;;;;;18.97;11.67;;;6.20;99.90;;;;;;5093031;28;20450;-65
2021/03/05 02:17:55;;;;;;;18.90;11.13;;;6.20;99.90;;;;;;5092751;28;20024;-65
2021/03/05 02:20:24;;;;;;;19.60;12.02;;;6.20;99.90;;;;;;5092477;28;20024;-65
2021/03/05 02:23:17;;;;;;;19.38;11.13;;;6.10;99.90;;;;;;5092677;28;20020;-66
2021/03/05 02:26:19;;;;;;;20.27;11.25;;;6.10;99.90;;;;;;5094307;28;20152;-64
2021/03/05 02:29:07;;;;;;;21.33;12.10;;;6.10;99.90;;;;;;5093628;28;20048;-64
2021/03/05 02:31:58;;;;;;;20.83;12.23;;;6.00;99.90;;;;;;5093699;28;20024;-64
2021/03/05 02:34:28;;;;;;;22.58;12.38;;;6.00;99.90;;;;;;5093935;28;20016;-65
2021/03/05 02:37:01;;;;;;;21.77;12.32;;;6.00;99.90;;;;;;5093837;28;20411;-65
2021/03/05 02:40:02;;;;;;;21.10;12.07;;;6.00;99.90;;;;;;5098101;28;20111;-65
2021/03/05 02:42:33;;;;;;;21.55;12.57;;;5.90;99.90;;;;;;5097908;28;20017;-65
2021/03/05 02:45:06;;;;;;;21.42;12.20;;;5.90;99.90;;;;;;5097530;28;20066;-65
2021/03/05 02:47:33;;;;;;;18.63;11.13;;;5.90;99.90;;;;;;5096849;28;20032;-65
2021/03/05 02:50:01;;;;;;;22.27;12.20;;;5.90;99.90;;;;;;5096174;28;20075;-65
2021/03/05 02:52:29;;;;;;;23.67;12.98;;;5.90;99.90;;;;;;5095755;28;20030;-65
2021/03/05 02:54:58;;;;;;;21.23;12.30;;;5.80;99.90;;;;;;5096015;28;20502;-65
2021/03/05 02:57:29;;;;;;;21.23;12.50;;;5.90;99.90;;;;;;5097291;28;20111;-65
2021/03/05 02:59:56;;;;;;;20.27;12.10;;;5.90;99.90;;;;;;5097241;28;20093;-65
2021/03/05 03:02:29;;;;;;;21.02;12.02;;;5.90;99.90;;;;;;5096008;28;20108;-65
2021/03/05 03:04:57;;;;;;;18.98;11.32;;;5.90;99.90;;;;;;5097609;28;20024;-65
2021/03/05 03:07:25;;;;;;;21.90;11.93;;;5.90;99.90;;;;;;5100481;28;20027;-65
2021/03/05 03:09:51;;;;;;;23.83;12.65;;;5.90;99.90;;;;;;5102812;28;20024;-65
2021/03/05 03:12:18;;;;;;;20.48;11.27;;;5.90;99.90;;;;;;5103217;28;20089;-64
2021/03/05 03:14:45;;;;;;;20.95;12.50;;;6.00;99.90;;;;;;5102267;28;20032;-64
2021/03/05 03:17:13;;;;;;;23.40;12.60;;;6.00;99.90;;;;;;5098107;28;20035;-64
2021/03/05 03:19:47;;;;;;;21.13;13.18;;;6.00;99.90;;;;;;5097503;28;20016;-64
2021/03/05 03:22:14;;;;;;;20.63;12.65;;;6.00;99.90;;;;;;5097580;28;20081;-64
2021/03/05 03:24:40;;;;;;;21.25;12.25;;;6.00;99.90;;;;;;5096746;28;20031;-64
2021/03/05 03:27:06;;;;;;;19.50;12.25;;;6.10;99.90;;;;;;5097439;28;20058;-64
2021/03/05 03:29:31;;;;;;;21.33;12.33;;;6.10;99.90;;;;;;5119709;22;20016;-66
2021/03/05 03:31:57;;;;;;;22.67;12.40;;;6.10;99.90;;;;;;5117477;28;20254;-67
2021/03/05 03:34:23;;;;;;;21.30;12.93;;;6.10;99.90;;;;;;5116839;28;20064;-66
2021/03/05 03:36:50;;;;;;;20.70;12.88;;;6.10;99.90;;;;;;5117146;28;20023;-65
2021/03/05 03:39:16;;;;;;;22.75;12.55;;;6.00;99.90;;;;;;5116777;28;20032;-66
2021/03/05 03:41:42;;;;;;;20.45;12.50;;;6.00;99.90;;;;;;5118737;28;20149;-66
2021/03/05 03:44:11;;;;;;;22.30;12.98;;;5.90;99.90;;;;;;5098604;28;20019;-66
2021/03/05 03:46:39;;;;;;;23.02;12.77;;;5.90;99.90;;;;;;5116715;28;20053;-65
2021/03/05 03:49:15;;;;;;;21.48;13.27;;;5.90;99.90;;;;;;5098075;28;20032;-66
2021/03/05 03:51:52;;;;;;;18.73;11.90;;;5.90;99.90;;;;;;5116344;28;20035;-65
2021/03/05 03:54:19;;;;;;;;;;;5.90;99.90;;;;;;5117419;28;20116;-66
2021/03/05 03:56:47;;;;;;;20.40;12.10;;;6.00;99.90;;;;;;5116524;28;19908;-67
2021/03/05 03:59:15;;;;;;;21.88;13.48;;;6.00;99.90;;;;;;5116994;28;20028;-66
2021/03/05 04:01:47;;;;;;;20.02;11.77;;;6.00;99.90;;;;;;5117127;28;20023;-66
2021/03/05 04:04:15;;;;;;;21.15;12.85;;;6.00;99.90;;;;;;5118861;28;20047;-66
2021/03/05 04:06:45;;;;;;;21.67;12.43;;;6.00;99.90;;;;;;5117313;28;20027;-66
2021/03/05 04:09:11;;;;;;;19.35;11.85;;;6.00;99.90;;;;;;5117113;28;20027;-64
2021/03/05 04:11:39;;;;;;;21.30;13.27;;;5.90;99.90;;;;;;5116672;28;20424;-66
2021/03/05 04:14:06;;;;;;;20.23;12.15;;;5.90;99.90;;;;;;5116330;28;20028;-65
2021/03/05 04:16:31;;;;;;;24.45;13.73;;;5.90;99.90;;;;;;5116492;28;20020;-63
2021/03/05 04:18:57;;;;;;;20.07;13.37;;;5.90;99.90;;;;;;5116071;28;20028;-65
2021/03/05 04:21:31;;;;;;;22.37;13.43;;;5.90;99.90;;;;;;5115691;28;20276;-66
2021/03/05 04:23:57;;;;;;;21.35;12.85;;;5.90;99.90;;;;;;5097521;28;20027;-66
2021/03/05 04:26:23;;;;;;;21.67;12.43;;;6.00;99.90;;;;;;5116639;28;20030;-66
2021/03/05 04:28:49;;;;;;;23.53;13.47;;;6.00;99.90;;;;;;5119102;28;20069;-66
2021/03/05 04:31:14;;;;;;;21.80;13.00;;;6.00;99.90;;;;;;5116943;28;20035;-64
2021/03/05 04:33:40;;;;;;;21.37;13.37;;;6.00;99.90;;;;;;5117425;28;20261;-65
2021/03/05 04:36:06;;;;;;;21.37;12.23;;;6.00;99.90;;;;;;5098959;28;20554;-65
2021/03/05 04:38:32;;;;;;;23.50;13.80;;;5.90;99.90;;;;;;5116178;28;20430;-65
2021/03/05 04:40:57;;;;;;;24.35;13.73;;;5.90;99.90;;;;;;5097187;28;20023;-65
2021/03/05 04:43:23;;;;;;;21.83;13.03;;;5.90;99.90;;;;;;5115617;28;20023;-66
2021/03/05 04:45:49;;;;;;;23.97;13.73;;;5.90;99.90;;;;;;5115753;28;20016;-66
2021/03/05 04:48:14;;;;;;;22.77;13.37;;;5.90;99.90;;;;;;5097120;28;20032;-65
2021/03/05 04:50:40;;;;;;;22.67;13.43;;;5.90;99.90;;;;;;5115546;28;20018;-65
2021/03/05 04:53:06;;;;;;;24.23;14.07;;;5.90;99.90;;;;;;5115684;28;20020;-65
2021/03/05 04:55:32;;;;;;;25.30;13.60;;;6.00;99.90;;;;;;5097228;28;20020;-66
2021/03/05 04:57:58;;;;;;;25.45;14.57;;;6.00;99.90;;;;;;5115795;28;20073;-66
2021/03/05 05:00:24;;;;;;;21.77;13.57;;;5.90;99.90;;;;;;5096452;28;20083;-65
2021/03/05 05:02:49;;;;;;;24.05;13.77;;;5.90;99.90;;;;;;5115665;28;20031;-65
2021/03/05 05:05:15;;;;;;;23.57;14.43;;;5.80;99.90;;;;;;5116230;28;20489;-66
2021/03/05 05:07:42;;;;;;;24.17;14.00;;;5.80;99.90;;;;;;5097050;28;20056;-66
2021/03/05 05:10:09;;;;;;;22.73;13.52;;;5.80;99.90;;;;;;5115159;28;20028;-66
2021/03/05 05:12:35;;;;;;;22.80;13.52;;;5.90;99.90;;;;;;5114865;28;20031;-66
2021/03/05 05:15:00;;;;;;;22.07;13.70;;;5.90;99.90;;;;;;5096481;28;20092;-65
2021/03/05 05:17:26;;;;;;;21.65;13.77;;;5.90;99.90;;;;;;5115174;28;20059;-65
2021/03/05 05:19:53;;;;;;;24.90;14.40;;;5.90;99.90;;;;;;5115570;28;20111;-66
2021/03/05 05:22:19;;;;;;;22.50;13.55;;;6.00;99.90;;;;;;5114670;28;20275;-66
2021/03/05 05:24:45;;;;;;;24.52;13.57;;;5.90;99.90;;;;;;5114596;28;20084;-66
2021/03/05 05:27:10;;;;;;;24.70;14.67;;;5.80;99.90;;;;;;5114466;28;20024;-65
2021/03/05 05:29:36;;;;;;;26.70;15.10;;;5.90;99.90;;;;;;5095945;28;20032;-65
2021/03/05 05:32:02;;;;;;;23.50;13.43;;;5.90;99.90;;;;;;5096062;28;20029;-65
2021/03/05 05:34:27;;;;;;;22.98;13.80;;;5.80;99.90;;;;;;5114199;28;20393;-65
2021/03/05 05:36:53;;;;;;;23.60;14.23;;;5.80;99.90;;;;;;5095827;28;20028;-65
2021/03/05 05:39:19;;;;;;;25.13;15.03;;;5.80;99.90;;;;;;5095820;28;20051;-65
2021/03/05 05:41:44;;;;;;;24.20;13.80;;;5.80;99.90;;;;;;5096197;28;20031;-65
2021/03/05 05:44:10;;;;;;;21.77;13.70;;;5.80;99.90;;;;;;5113422;28;20026;-66
2021/03/05 05:46:38;;;;;;;25.20;14.00;;;5.80;99.90;;;;;;5114006;28;20023;-65
2021/03/05 05:49:03;;;;;;;24.52;14.02;;;5.80;99.90;;;;;;5114583;28;20103;-65
2021/03/05 05:51:33;;;;;;;25.57;14.33;;;5.80;99.90;;;;;;5114066;28;20043;-65
2021/03/05 05:54:06;;;;;;;26.48;14.73;;;5.80;99.90;;;;;;5114427;28;20479;-65
2021/03/05 05:56:33;;;;;;;23.65;14.20;;;5.90;99.90;;;;;;5114238;28;20047;-65
2021/03/05 05:58:58;;;;;;;23.15;13.43;;;5.90;99.90;;;;;;5114455;28;20020;-65
2021/03/05 06:01:24;;;;;;;24.07;14.07;;;5.90;99.90;;;;;;5114181;28;20388;-64
2021/03/05 06:03:50;;;;;;;26.00;15.00;;;5.80;99.90;;;;;;5114096;28;20396;-64
2021/03/05 06:06:16;;;;;;;25.27;14.17;;;5.90;99.90;;;;;;5113831;28;20031;-65
2021/03/05 06:08:43;;;;;;;23.50;13.95;;;5.80;99.90;;;;;;5114299;28;20357;-65
2021/03/05 06:11:08;;;;;;;26.63;15.73;;;5.80;99.90;;;;;;5097032;28;20050;-64
2021/03/05 06:13:34;;;;;;;27.23;15.17;;;5.80;99.90;;;;;;5095851;28;20063;-64
2021/03/05 06:16:13;;;;;;;26.60;15.30;;;5.80;99.90;;;;;;5098848;28;20024;-65
2021/03/05 06:18:39;;;;;;;27.20;15.35;;;5.80;99.90;;;;;;5113891;28;20047;-65
2021/03/05 06:21:05;;;;;;;26.88;15.82;;;5.80;99.90;;;;;;5113691;28;20035;-64
2021/03/05 06:23:34;;;;;;;29.70;15.77;;;5.70;99.90;;;;;;5113777;28;20024;-64
2021/03/05 06:26:01;;;;;;;29.30;15.65;;;5.70;99.90;;;;;;5113640;28;20474;-65
2021/03/05 06:28:28;;;;;;;30.40;15.60;;;5.70;99.90;;;;;;5113419;28;20076;-65
2021/03/05 06:30:54;;;;;;;31.83;17.17;;;5.70;99.90;;;;;;5113381;28;20031;-66
2021/03/05 06:33:31;;;;;;;30.25;16.27;;;5.70;99.90;;;;;;5114151;28;20106;-68
2021/03/05 06:36:16;;;;;;;32.53;17.00;;;5.60;99.90;;;;;;5114159;28;20031;-66
2021/03/05 06:38:44;;;;;;;33.58;17.33;;;5.60;99.90;;;;;;5096470;28;20030;-67
2021/03/05 06:41:17;;;;;;;30.92;17.23;;;5.60;99.90;;;;;;5116014;28;20448;-67
2021/03/05 06:43:47;;;;;;;37.10;18.30;;;5.50;99.90;;;;;;5095589;28;20028;-66
2021/03/05 06:46:30;;;;;;;30.77;17.33;;;5.50;99.90;;;;;;5094582;28;20472;-67
2021/03/05 06:48:58;;;;;;;34.42;16.25;;;5.50;99.90;;;;;;5116593;28;20118;-67
2021/03/05 06:51:24;;;;;;;34.83;18.55;;;5.50;99.90;;;;;;5115139;28;20042;-66
2021/03/05 06:54:00;;;;;;;32.38;18.35;;;5.50;99.90;;;;;;5117314;28;20395;-65
2021/03/05 06:56:27;;;;;;;32.63;16.80;;;5.50;99.90;;;;;;5117221;28;20038;-66
2021/03/05 06:58:59;;;;;;;32.90;17.00;;;5.50;99.90;;;;;;5116862;28;20058;-65
2021/03/05 07:01:24;;;;;;;34.97;18.50;;;5.50;99.90;;;;;;5114000;28;20095;-66
2021/03/05 07:04:11;;;;;;;36.35;18.27;;;5.50;99.90;;;;;;5095772;28;20043;-66
2021/03/05 07:06:37;;;;;;;33.13;18.08;;;5.50;99.90;;;;;;5114715;28;20097;-67
2021/03/05 07:09:04;;;;;;;;;;;5.40;99.90;;;;;;5115939;28;20453;-68
2021/03/05 07:11:41;;;;;;;30.27;16.30;;;5.40;99.90;;;;;;5115241;28;19994;-66
2021/03/05 07:14:09;;;;;;;31.42;16.55;;;5.30;99.90;;;;;;5118148;28;20054;-67
2021/03/05 07:16:48;;;;;;;30.17;16.13;;;5.30;99.90;;;;;;5114289;28;20024;-65
2021/03/05 07:19:17;;;;;;;31.50;16.92;;;5.20;99.90;;;;;;5113663;28;20496;-65
2021/03/05 07:21:45;;;;;;;30.98;17.42;;;5.20;99.90;;;;;;5113400;28;20098;-67
2021/03/05 07:24:13;;;;;;;32.90;16.85;;;5.20;99.90;;;;;;5115796;28;20012;-66
2021/03/05 07:26:43;;;;;;;30.98;16.63;;;5.20;99.90;;;;;;5117092;28;20019;-66
2021/03/05 07:29:37;;;;;;;34.00;18.20;;;5.20;99.90;;;;;;5117159;28;20020;-67
2021/03/05 07:32:07;;;;;;;31.15;16.50;;;5.20;99.90;;;;;;5113945;28;20039;-67
2021/03/05 07:34:51;;;;;;;34.58;17.98;;;5.30;99.90;;;;;;5099430;28;20042;-65
2021/03/05 07:37:18;;;;;;;34.13;18.02;;;5.10;99.90;;;;;;5117611;28;20028;-66
2021/03/05 07:39:48;;;;;;;32.55;17.25;;;5.10;99.90;;;;;;5098995;28;20074;-68
2021/03/05 07:42:14;;;;;;;37.80;18.13;;;5.00;99.90;;;;;;5117313;28;20042;-66
2021/03/05 07:44:40;;;;;;;;;;;4.90;99.90;;;;;;5118429;28;20016;-67
2021/03/05 07:47:14;;;;;;;33.17;16.73;;;4.90;99.90;;;;;;5117563;28;19914;-67
2021/03/05 07:49:40;;;;;;;34.08;17.52;;;5.00;99.90;;;;;;5116517;28;20034;-66
2021/03/05 07:52:08;;;;;;;31.70;17.17;;;5.00;99.90;;;;;;5116310;28;20032;-67
2021/03/05 07:54:54;;;;;;;35.10;19.00;;;5.00;99.90;;;;;;5098015;28;20027;-66
2021/03/05 07:57:19;;;;;;;35.88;18.40;;;5.00;99.90;;;;;;5116275;28;20040;-66
2021/03/05 07:59:47;;;;;;;35.73;17.53;;;4.90;99.90;;;;;;5099060;28;20027;-66
2021/03/05 08:02:13;;;;;;;35.67;18.15;;;4.90;99.90;;;;;;5098614;28;20027;-65
2021/03/05 08:04:53;;;;;;;32.85;17.55;;;4.90;99.90;;;;;;5099114;28;20020;-65
2021/03/05 08:07:22;;;;;;;31.15;16.95;;;4.80;99.90;;;;;;5119362;28;20030;-66
2021/03/05 08:09:48;;;;;;;35.53;17.63;;;4.90;99.90;;;;;;5119846;28;20475;-65
2021/03/05 08:12:31;;;;;;;34.67;16.80;;;4.90;99.90;;;;;;5102246;28;20053;-66
2021/03/05 08:15:09;;;;;;;29.50;15.75;;;5.00;99.90;;;;;;5119280;28;20027;-66
2021/03/05 08:17:45;;;;;;;29.42;15.13;;;5.10;99.90;;;;;;5101314;28;20024;-65
2021/03/05 08:20:17;;;;;;;29.90;16.02;;;5.10;99.90;;;;;;5100736;28;20024;-65
2021/03/05 08:23:01;;;;;;;28.10;13.57;;;5.10;99.90;;;;;;5119197;28;20024;-65
2021/03/05 08:25:35;;;;;;;24.77;13.85;;;5.10;99.90;;;;;;5117602;28;20034;-68
2021/03/05 08:28:03;;;;;;;26.80;15.05;;;5.10;99.90;;;;;;5116779;28;20103;-69
2021/03/05 08:30:29;;;;;;;26.27;13.80;;;5.10;99.90;;;;;;5115825;28;20034;-67
2021/03/05 08:33:02;;;;;;;22.47;13.20;;;5.20;99.90;;;;;;5116285;28;20028;-65
2021/03/05 08:35:31;;;;;;;22.30;13.40;;;5.20;99.90;;;;;;5098128;28;20507;-66
2021/03/05 08:38:13;;;;;;;24.15;11.93;;;5.20;99.90;;;;;;5097459;28;20368;-66
2021/03/05 08:40:46;;;;;;;22.42;12.02;;;5.20;99.90;;;;;;5097584;28;20024;-66
2021/03/05 08:43:17;;;;;;;23.85;12.98;;;5.20;99.90;;;;;;5097101;28;20050;-66
2021/03/05 08:45:46;;;;;;;24.15;13.50;;;5.30;99.90;;;;;;5115728;28;20020;-68
2021/03/05 08:48:15;;;;;;;27.13;13.40;;;5.20;99.90;;;;;;5115620;28;20020;-67
2021/03/05 08:50:42;;;;;;;22.35;12.75;;;5.20;99.90;;;;;;5115546;28;20012;-67
2021/03/05 08:53:08;;;;;;;;;;;5.20;99.90;;;;;;5115626;28;20058;-66
2021/03/05 08:55:37;;;;;;;32.13;12.80;;;5.20;99.90;;;;;;5115251;28;19903;-66
2021/03/05 08:58:03;;;;;;;25.13;11.88;;;5.20;99.90;;;;;;5115609;28;20050;-67
2021/03/05 09:00:31;;;;;;;20.48;11.73;;;5.20;99.90;;;;;;5115006;28;20479;-67
2021/03/05 09:03:06;;;;;;;22.00;11.70;;;5.20;99.90;;;;;;5097565;28;20035;-66
2021/03/05 09:05:33;;;;;;;24.65;12.38;;;5.20;99.90;;;;;;5116099;28;20030;-67
2021/03/05 09:07:59;;;;;;;18.90;10.57;;;5.40;99.90;;;;;;5098047;28;20104;-67
2021/03/05 09:10:51;;;;;;;18.25;10.10;;;5.50;99.90;;;;;;5097475;28;20019;-67
2021/03/05 09:13:36;;;;;;;19.52;10.00;;;5.50;99.90;;;;;;5116710;28;20028;-67
2021/03/05 09:16:04;;;;;;;18.33;9.75;;;5.50;99.90;;;;;;5120466;28;20019;-64
2021/03/05 09:18:34;;;;;;;23.27;10.45;;;5.50;99.90;;;;;;5117286;28;20406;-61
2021/03/05 09:21:01;;;;;;;24.38;10.75;;;5.60;99.90;;;;;;5097602;28;20023;-64
2021/03/05 09:23:47;;;;;;;18.98;9.57;;;5.70;99.90;;;;;;5115546;28;20525;-64
2021/03/05 09:26:15;;;;;;;16.40;9.57;;;5.70;99.90;;;;;;5098175;28;20437;-64
2021/03/05 09:28:52;;;;;;;17.35;9.32;;;5.60;99.90;;;;;;5097796;28;20028;-64
2021/03/05 09:31:25;;;;;;;;;;;5.60;99.90;;;;;;5120622;28;20027;-64
2021/03/05 09:33:52;;;;;;;20.02;9.95;;;5.50;99.90;;;;;;5120739;28;19907;-64
2021/03/05 09:36:19;;;;;;;19.75;9.88;;;5.40;99.90;;;;;;5099641;28;20034;-63
2021/03/05 09:38:53;;;;;;;19.60;10.07;;;5.40;99.90;;;;;;5119091;28;20092;-66
2021/03/05 09:41:21;;;;;;;18.67;9.75;;;5.50;99.90;;;;;;5098666;28;20020;-64
2021/03/05 09:43:58;;;;;;;26.42;10.80;;;5.40;99.90;;;;;;5116623;28;20446;-65
2021/03/05 09:46:29;;;;;;;20.92;11.13;;;5.40;99.90;;;;;;5099157;28;20492;-64
2021/03/05 09:48:56;;;;;;;17.08;10.07;;;5.50;99.90;;;;;;5115057;28;20028;-65
2021/03/05 09:51:22;;;;;;;;;;;5.50;99.90;;;;;;5096979;28;20020;-65
2021/03/05 09:53:56;;;;;;;22.05;10.52;;;5.40;99.90;;;;;;5114463;28;19941;-65
2021/03/05 09:56:28;;;;;;;19.27;10.32;;;5.40;99.90;;;;;;5114874;28;20538;-64
2021/03/05 09:58:56;;;;;;;18.25;9.63;;;5.40;99.90;;;;;;5096480;28;20023;-64
2021/03/05 10:01:22;;;;;;;20.25;10.60;;;5.50;99.90;;;;;;5096536;28;20034;-64
2021/03/05 10:04:14;;;;;;;18.73;10.27;;;5.50;99.90;;;;;;5097212;28;20035;-66
2021/03/05 10:06:40;;;;;;;19.10;9.93;;;5.70;99.90;;;;;;5095602;28;20024;-67
2021/03/05 10:09:11;;;;;;;19.83;9.80;;;5.80;99.90;;;;;;5102532;28;20119;-65
2021/03/05 10:11:44;;;;;;;18.75;9.60;;;6.00;99.90;;;;;;5118829;28;20027;-64
2021/03/05 10:14:26;;;;;;;17.67;9.48;;;6.00;99.90;;;;;;5118383;28;20462;-63
2021/03/05 10:16:52;;;;;;;18.80;9.77;;;6.00;99.90;;;;;;5114554;28;20034;-60
2021/03/05 10:19:21;;;;;;;15.68;9.27;;;6.00;99.90;;;;;;5114357;28;20436;-63
2021/03/05 10:21:52;;;;;;;17.50;10.05;;;5.90;99.90;;;;;;5116047;28;20072;-62
2021/03/05 10:24:19;;;;;;;20.70;10.90;;;5.90;99.90;;;;;;5114810;28;20035;-60
2021/03/05 10:27:37;;;;;;;19.20;10.50;;;5.80;99.90;;;;;;5114094;28;20030;-63
2021/03/05 10:30:03;;;;;;;21.80;10.27;;;5.70;99.90;;;;;;5111155;28;20047;-60
2021/03/05 10:32:37;;;;;;;21.02;10.35;;;5.70;99.90;;;;;;5114902;28;20549;-63
2021/03/05 10:35:15;;;;;;;22.35;11.15;;;5.80;99.90;;;;;;5114632;28;20024;-63
2021/03/05 10:37:43;;;;;;;19.88;10.77;;;5.90;99.90;;;;;;5114899;28;20023;-60
2021/03/05 10:40:11;;;;;;;18.38;10.00;;;6.00;99.90;;;;;;5113829;28;20061;-63
2021/03/05 10:42:37;;;;;;;22.15;10.65;;;6.00;99.90;;;;;;5095476;28;20111;-63
2021/03/05 10:45:04;;;;;;;19.80;10.40;;;6.10;99.90;;;;;;5114794;28;20055;-63
2021/03/05 10:47:32;;;;;;;19.58;10.27;;;6.00;99.90;;;;;;5115114;28;20057;-66
2021/03/05 10:49:57;;;;;;;18.45;9.20;;;6.10;99.90;;;;;;5095869;28;20031;-64
2021/03/05 10:52:23;;;;;;;20.73;10.10;;;6.10;99.90;;;;;;5114318;28;20485;-61
2021/03/05 10:54:49;;;;;;;21.23;10.48;;;6.30;99.90;;;;;;5113948;28;20353;-64
2021/03/05 10:57:17;;;;;;;21.73;9.30;;;6.30;99.90;;;;;;5095029;28;20074;-65
2021/03/05 10:59:44;;;;;;;23.05;11.93;;;6.30;99.90;;;;;;5116944;28;20576;-64
2021/03/05 11:02:11;;;;;;;17.58;10.20;;;6.30;99.90;;;;;;5101516;28;20056;-64
2021/03/05 11:04:39;;;;;;;21.08;10.82;;;6.30;99.90;;;;;;5099740;28;20523;-63
2021/03/05 11:07:05;;;;;;;21.88;11.18;;;6.40;99.90;;;;;;5118071;28;20043;-62
2021/03/05 11:09:32;;;;;;;23.13;11.55;;;6.40;99.90;;;;;;5118281;28;20024;-62
2021/03/05 11:11:59;;;;;;;20.05;10.88;;;6.50;99.90;;;;;;5118035;28;20106;-64
2021/03/05 11:14:25;;;;;;;22.90;12.23;;;6.60;99.90;;;;;;5099588;28;20493;-61
2021/03/05 11:16:53;;;;;;;20.80;10.77;;;6.60;99.90;;;;;;5099552;28;20032;-66
2021/03/05 11:19:19;;;;;;;20.73;11.25;;;6.70;99.90;;;;;;5098906;28;20038;-65
2021/03/05 11:21:45;;;;;;;19.75;11.68;;;6.70;99.90;;;;;;5099400;28;20020;-63
2021/03/05 11:24:11;;;;;;;22.20;11.68;;;6.80;99.90;;;;;;5099516;28;20019;-57
2021/03/05 11:26:37;;;;;;;21.90;12.73;;;6.80;99.90;;;;;;5118486;28;20483;-61
2021/03/05 11:29:04;;;;;;;26.13;13.03;;;6.80;99.90;;;;;;5117489;28;20050;-64
2021/03/05 11:31:29;;;;;;;26.23;12.57;;;6.70;99.90;;;;;;5116639;28;20032;-62
2021/03/05 11:33:55;;;;;;;19.53;11.03;;;6.70;99.90;;;;;;5099001;28;20050;-60
2021/03/05 11:36:21;;;;;;;23.27;12.65;;;6.60;99.90;;;;;;5098499;28;20100;-64
2021/03/05 11:38:49;;;;;;;22.17;11.87;;;6.70;99.90;;;;;;5116552;28;20046;-65
2021/03/05 11:41:15;;;;;;;25.40;12.63;;;6.70;99.90;;;;;;5117394;28;20300;-66
2021/03/05 11:43:47;;;;;;;22.90;12.02;;;6.80;99.90;;;;;;5117628;28;20050;-63
2021/03/05 11:46:13;;;;;;;20.45;12.35;;;6.90;99.90;;;;;;5117134;28;20028;-62
2021/03/05 11:48:42;;;;;;;24.10;11.77;;;7.00;99.90;;;;;;5117500;28;20471;-63
2021/03/05 11:51:08;;;;;;;27.95;12.93;;;7.00;99.90;;;;;;5117008;28;20057;-61
2021/03/05 11:53:34;;;;;;;24.42;12.98;;;7.00;99.90;;;;;;5117221;28;20023;-63
2021/03/05 11:56:00;;;;;;;28.10;13.43;;;7.10;99.90;;;;;;5098235;28;20495;-63
2021/03/05 11:58:26;;;;;;;23.65;12.27;;;7.00;99.90;;;;;;5099107;28;20110;-66
2021/03/05 12:00:52;;;;;;;25.63;12.57;;;7.00;99.90;;;;;;5117134;28;20099;-64
2021/03/05 12:03:17;;;;;;;19.17;12.00;;;7.00;99.90;;;;;;5117294;28;20097;-64
2021/03/05 12:05:43;;;;;;;22.50;12.97;;;7.00;99.90;;;;;;5098630;28;20046;-64
2021/03/05 12:08:11;;;;;;;27.20;13.50;;;7.10;99.90;;;;;;5117537;28;20026;-63
2021/03/05 12:10:37;;;;;;;25.85;12.70;;;7.20;99.90;;;;;;5116104;28;20028;-65
2021/03/05 12:13:03;;;;;;;25.35;12.73;;;7.10;99.90;;;;;;5098638;28;20095;-66
2021/03/05 12:15:29;;;;;;;20.90;11.97;;;7.10;99.90;;;;;;5098136;28;20032;-65
2021/03/05 12:17:54;;;;;;;26.60;13.37;;;7.20;99.90;;;;;;5116899;28;20687;-65
2021/03/05 12:20:20;;;;;;;22.03;12.63;;;7.20;99.90;;;;;;5117213;28;20023;-68
2021/03/05 12:22:46;;;;;;;20.77;12.43;;;7.20;99.90;;;;;;5116788;28;20024;-65
2021/03/05 12:25:13;;;;;;;21.10;11.57;;;7.10;99.90;;;;;;5116321;28;20015;-63
2021/03/05 12:27:39;;;;;;;21.50;12.00;;;7.20;99.90;;;;;;5097865;28;20051;-64
2021/03/05 12:30:06;;;;;;;28.00;12.47;;;7.30;99.90;;;;;;5097720;28;20039;-63
2021/03/05 12:32:32;;;;;;;22.85;12.13;;;7.30;99.90;;;;;;5116349;28;20532;-65
2021/03/05 12:34:57;;;;;;;18.10;11.23;;;7.30;99.90;;;;;;5115986;28;20062;-64
2021/03/05 12:37:23;;;;;;;21.60;11.53;;;7.30;99.90;;;;;;5097795;28;20114;-65
2021/03/05 12:39:49;;;;;;;20.90;12.33;;;7.40;99.90;;;;;;5116458;28;20012;-61
2021/03/05 12:42:14;;;;;;;20.03;11.33;;;7.30;99.90;;;;;;5116683;28;20020;-64
2021/03/05 12:44:40;;;;;;;20.57;10.53;;;7.40;99.90;;;;;;5116836;28;20019;-64
2021/03/05 12:47:06;;;;;;;25.17;11.40;;;7.40;99.90;;;;;;5115741;28;20034;-64
2021/03/05 12:49:32;;;;;;;20.53;10.20;;;7.40;99.90;;;;;;5116308;28;20390;-63